createdAt,value
2018-10-02T00:00:06.254Z,2.00
2018-10-02T00:02:35.187Z,2.20
2018-10-02T00:05:04.129Z,2.92
2018-10-02T00:07:33.085Z,2.92
2018-10-02T00:10:02.018Z,2.55
2018-10-02T00:12:36.359Z,2.92
2018-10-02T00:15:05.686Z,2.70
2018-10-02T00:17:34.645Z,2.70
2018-10-02T00:20:03.664Z,2.70
2018-10-02T00:22:32.630Z,2.40
2018-10-02T00:25:01.561Z,2.95
2018-10-02T00:27:30.514Z,2.75
2018-10-02T00:29:59.461Z,3.05
2018-10-02T00:32:28.566Z,2.70
2018-10-02T00:34:57.389Z,2.50
2018-10-02T00:37:26.345Z,2.40
2018-10-02T00:39:55.274Z,2.40
2018-10-02T00:42:24.274Z,2.52
2018-10-02T00:44:53.213Z,2.40
2018-10-02T00:47:22.165Z,2.70
2018-10-02T00:49:51.101Z,2.77
2018-10-02T00:52:20.062Z,2.98
2018-10-02T00:54:48.997Z,3.03
2018-10-02T00:57:17.962Z,2.15
2018-10-02T00:59:46.886Z,2.50
2018-10-02T01:02:15.834Z,2.80
2018-10-02T01:04:44.775Z,2.90
2018-10-02T01:07:13.763Z,2.50
2018-10-02T01:09:42.693Z,2.60
2018-10-02T01:12:11.646Z,2.70
2018-10-02T01:14:40.594Z,3.20
2018-10-02T01:17:09.533Z,2.92
2018-10-02T01:19:38.454Z,3.25
2018-10-02T01:22:07.370Z,3.13
2018-10-02T01:24:36.266Z,3.30
2018-10-02T01:27:05.445Z,3.02
2018-10-02T01:29:34.381Z,3.12
2018-10-02T01:32:03.298Z,3.17
2018-10-02T01:34:32.206Z,2.90
2018-10-02T01:37:01.141Z,2.90
2018-10-02T01:39:30.053Z,3.25
2018-10-02T01:41:59.029Z,3.20
2018-10-02T01:44:27.937Z,3.10
2018-10-02T01:46:56.870Z,3.50
2018-10-02T01:49:25.778Z,3.93
2018-10-02T01:51:54.694Z,3.70
2018-10-02T01:54:23.610Z,3.72
2018-10-02T01:56:52.549Z,3.47
2018-10-02T01:59:21.457Z,3.95
2018-10-02T02:01:50.394Z,3.30
2018-10-02T02:04:19.314Z,3.92
2018-10-02T02:06:48.244Z,3.63
2018-10-02T02:09:17.150Z,3.77
2018-10-02T02:11:46.082Z,3.92
2018-10-02T02:14:15.012Z,3.45
2018-10-02T02:16:43.943Z,3.17
2018-10-02T02:19:12.888Z,3.75
2018-10-02T02:21:41.838Z,3.45
2018-10-02T02:24:10.729Z,4.03
2018-10-02T02:26:39.681Z,3.40
2018-10-02T02:29:08.585Z,4.03
2018-10-02T02:31:37.523Z,4.30
2018-10-02T02:34:06.454Z,3.70
2018-10-02T02:36:35.370Z,3.85
2018-10-02T02:39:05.262Z,3.50
2018-10-02T02:41:34.182Z,3.80
2018-10-02T02:44:03.122Z,3.10
2018-10-02T02:46:32.049Z,3.22
2018-10-02T02:49:06.294Z,3.80
2018-10-02T02:51:35.211Z,3.43
2018-10-02T02:54:04.151Z,3.60
2018-10-02T02:56:33.054Z,3.92
2018-10-02T02:59:02.086Z,3.40
2018-10-02T03:01:31.049Z,4.10
2018-10-02T03:04:00.386Z,3.70
2018-10-02T03:06:29.302Z,3.45
2018-10-02T03:08:58.283Z,4.03
2018-10-02T03:11:27.207Z,3.83
2018-10-02T03:13:56.190Z,3.70
2018-10-02T03:16:25.117Z,4.17
2018-10-02T03:18:54.220Z,3.40
2018-10-02T03:21:23.161Z,4.00
2018-10-02T03:23:52.137Z,3.67
2018-10-02T03:26:21.062Z,4.37
2018-10-02T03:28:50.034Z,4.40
2018-10-02T03:31:18.971Z,3.80
2018-10-02T03:33:47.937Z,4.00
2018-10-02T03:36:16.898Z,4.00
2018-10-02T03:38:45.883Z,3.92
2018-10-02T03:41:14.834Z,4.27
2018-10-02T03:43:43.819Z,4.03
2018-10-02T03:46:12.781Z,3.80
2018-10-02T03:48:42.831Z,3.40
2018-10-02T03:51:11.767Z,3.80
2018-10-02T03:53:40.779Z,4.40
2018-10-02T03:56:09.739Z,4.17
2018-10-02T03:58:38.723Z,4.50
2018-10-02T04:01:07.738Z,4.83
2018-10-02T04:03:36.787Z,4.40
2018-10-02T04:06:05.753Z,4.60
2018-10-02T04:08:34.762Z,4.40
2018-10-02T04:11:03.730Z,4.37
2018-10-02T04:13:32.719Z,5.00
2018-10-02T04:16:01.708Z,4.33
2018-10-02T04:18:30.713Z,5.60
2018-10-02T04:20:59.674Z,4.95
2018-10-02T04:23:28.615Z,5.60
2018-10-02T04:25:57.558Z,5.10
2018-10-02T04:28:26.614Z,5.47
2018-10-02T04:30:55.490Z,5.33
2018-10-02T04:33:24.470Z,5.40
2018-10-02T04:35:54.066Z,5.67
2018-10-02T04:38:23.022Z,5.28
2018-10-02T04:40:51.970Z,4.97
2018-10-02T04:43:20.963Z,5.53
2018-10-02T04:45:49.926Z,5.20
2018-10-02T04:48:18.870Z,6.53
2018-10-02T04:50:47.829Z,6.58
2018-10-02T04:53:16.762Z,6.17
2018-10-02T04:55:45.810Z,6.20
2018-10-02T04:58:14.746Z,6.30
2018-10-02T05:00:43.708Z,6.60
2018-10-02T05:03:12.658Z,6.50
2018-10-02T05:05:41.632Z,6.95
2018-10-02T05:08:10.596Z,6.95
2018-10-02T05:10:39.587Z,7.95
2018-10-02T05:13:08.590Z,7.33
2018-10-02T05:15:37.579Z,8.10
2018-10-02T05:18:06.546Z,9.10
2018-10-02T05:20:35.611Z,8.40
2018-10-02T05:23:04.736Z,8.88
2018-10-02T05:25:33.720Z,8.70
2018-10-02T05:28:02.685Z,8.83
2018-10-02T05:30:31.697Z,8.20
2018-10-02T05:33:00.666Z,8.57
2018-10-02T05:35:29.769Z,8.27
2018-10-02T05:37:58.671Z,8.70
2018-10-02T05:40:27.638Z,9.13
2018-10-02T05:42:56.645Z,8.43
2018-10-02T05:45:25.619Z,8.43
2018-10-02T05:47:54.859Z,9.13
2018-10-02T05:50:23.878Z,9.58
2018-10-02T05:52:52.862Z,9.33
2018-10-02T05:55:21.846Z,9.15
2018-10-02T05:57:50.826Z,9.90
2018-10-02T06:00:19.804Z,9.90
2018-10-02T06:02:48.782Z,9.40
2018-10-02T06:05:17.766Z,10.08
2018-10-02T06:07:46.752Z,10.37
2018-10-02T06:10:15.735Z,10.40
2018-10-02T06:12:44.728Z,10.17
2018-10-02T06:15:13.736Z,9.83
2018-10-02T06:17:42.719Z,10.88
2018-10-02T06:20:11.711Z,11.35
2018-10-02T06:22:40.713Z,10.60
2018-10-02T06:25:09.717Z,11.12
2018-10-02T06:27:38.683Z,10.43
2018-10-02T06:30:07.705Z,11.85
2018-10-02T06:32:37.360Z,13.53
2018-10-02T06:35:06.332Z,12.57
2018-10-02T06:37:35.299Z,13.58
2018-10-02T06:40:04.288Z,13.93
2018-10-02T06:42:33.277Z,13.83
2018-10-02T06:45:02.328Z,15.10
2018-10-02T06:47:31.266Z,15.48
2018-10-02T06:50:00.263Z,16.42
2018-10-02T06:52:29.492Z,16.53
2018-10-02T06:54:58.271Z,15.80
2018-10-02T06:57:27.239Z,16.10
2018-10-02T06:59:56.231Z,15.90
2018-10-02T07:02:25.197Z,14.13
2018-10-02T07:04:54.198Z,13.40
2018-10-02T07:07:23.158Z,14.37
2018-10-02T07:09:52.175Z,13.80
2018-10-02T07:12:21.138Z,13.57
2018-10-02T07:14:50.113Z,11.70
2018-10-02T07:17:19.174Z,11.47
2018-10-02T07:19:48.183Z,11.27
2018-10-02T07:22:17.118Z,10.37
2018-10-02T07:24:46.079Z,9.78
2018-10-02T07:27:15.195Z,10.80
2018-10-02T07:29:44.018Z,10.20
2018-10-02T07:32:12.991Z,10.47
2018-10-02T07:34:41.930Z,9.20
2018-10-02T07:37:10.895Z,8.70
2018-10-02T07:39:39.855Z,8.60
2018-10-02T07:42:08.817Z,8.10
2018-10-02T07:44:37.824Z,8.87
2018-10-02T07:47:07.011Z,8.20
2018-10-02T07:49:35.968Z,8.10
2018-10-02T07:52:04.934Z,7.45
2018-10-02T07:54:33.875Z,7.90
2018-10-02T07:57:02.916Z,7.47
2018-10-02T07:59:31.922Z,8.27
2018-10-02T08:02:00.895Z,7.87
2018-10-02T08:04:29.834Z,7.80
2018-10-02T08:06:59.780Z,7.20
2018-10-02T08:09:28.731Z,8.30
2018-10-02T08:11:57.731Z,7.65
2018-10-02T08:14:26.753Z,7.15
2018-10-02T08:16:55.695Z,7.80
2018-10-02T08:19:24.646Z,8.50
2018-10-02T08:21:53.619Z,8.70
2018-10-02T08:24:22.573Z,9.30
2018-10-02T08:26:51.558Z,9.50
2018-10-02T08:29:20.579Z,9.10
2018-10-02T08:31:49.501Z,9.70
2018-10-02T08:34:18.471Z,9.40
2018-10-02T08:36:47.459Z,10.30
2018-10-02T08:39:16.403Z,9.60
2018-10-02T08:41:45.401Z,10.82
2018-10-02T08:44:14.355Z,10.83
2018-10-02T08:46:43.318Z,10.97
2018-10-02T08:49:12.235Z,11.35
2018-10-02T08:51:41.280Z,10.72
2018-10-02T08:54:10.311Z,11.30
2018-10-02T08:56:39.291Z,11.93
2018-10-02T08:59:08.299Z,10.85
2018-10-02T09:01:37.271Z,12.58
2018-10-02T09:04:06.286Z,11.93
2018-10-02T09:06:35.289Z,12.20
2018-10-02T09:09:06.003Z,10.20
2018-10-02T09:11:34.983Z,11.22
2018-10-02T09:14:03.964Z,11.20
2018-10-02T09:16:33.004Z,10.60
2018-10-02T09:19:02.310Z,11.00
2018-10-02T09:21:31.323Z,10.90
2018-10-02T09:24:00.346Z,10.80
2018-10-02T09:26:29.319Z,10.20
2018-10-02T09:28:58.345Z,10.38
2018-10-02T09:31:32.745Z,10.05
2018-10-02T09:34:07.110Z,9.87
2018-10-02T09:36:41.462Z,10.58
2018-10-02T09:39:15.670Z,9.38
2018-10-02T09:41:50.026Z,9.20
2018-10-02T09:44:19.004Z,9.33
2018-10-02T09:46:48.040Z,8.55
2018-10-02T09:49:17.017Z,11.83
2018-10-02T09:51:46.076Z,9.58
2018-10-02T09:54:14.997Z,9.38
2018-10-02T09:56:45.100Z,9.43
2018-10-02T09:59:15.351Z,10.13
2018-10-02T10:01:49.550Z,9.55
2018-10-02T10:04:18.734Z,9.45
2018-10-02T10:06:47.782Z,9.20
2018-10-02T10:09:16.842Z,9.20
2018-10-02T10:11:45.826Z,10.10
2018-10-02T10:14:14.863Z,9.20
2018-10-02T10:16:43.957Z,9.20
2018-10-02T10:19:13.047Z,9.05
2018-10-02T10:21:42.090Z,8.00
2018-10-02T10:24:11.077Z,8.20
2018-10-02T10:26:40.055Z,7.37
2018-10-02T10:29:09.169Z,8.00
2018-10-02T10:31:38.099Z,8.25
2018-10-02T10:34:07.112Z,8.25
2018-10-02T10:36:36.092Z,7.57
2018-10-02T10:39:08.086Z,7.80
2018-10-02T10:41:37.066Z,7.80
2018-10-02T10:44:06.198Z,7.12
2018-10-02T10:46:35.545Z,7.77
2018-10-02T10:49:04.521Z,7.60
2018-10-02T10:51:33.482Z,7.17
2018-10-02T10:54:02.466Z,6.93
2018-10-02T10:56:31.565Z,7.47
2018-10-02T10:59:00.464Z,7.20
2018-10-02T11:01:29.439Z,5.77
2018-10-02T11:03:58.640Z,6.40
2018-10-02T11:06:27.678Z,5.58
2018-10-02T11:08:56.676Z,5.80
2018-10-02T11:11:26.683Z,5.87
2018-10-02T11:13:55.687Z,4.93
2018-10-02T11:16:24.663Z,5.60
2018-10-02T11:18:53.835Z,6.20
2018-10-02T11:21:22.816Z,5.47
2018-10-02T11:23:51.801Z,5.80
2018-10-02T11:26:20.756Z,5.20
2018-10-02T11:28:50.746Z,4.80
2018-10-02T11:31:19.882Z,5.10
2018-10-02T11:33:48.982Z,5.37
2018-10-02T11:36:18.027Z,5.23
2018-10-02T11:38:47.016Z,5.90
2018-10-02T11:41:15.974Z,5.50
2018-10-02T11:43:48.916Z,5.35
2018-10-02T11:46:17.872Z,5.20
2018-10-02T11:48:46.934Z,5.50
2018-10-02T11:51:15.945Z,5.50
2018-10-02T11:53:44.918Z,5.45
2018-10-02T11:56:13.915Z,5.00
2018-10-02T11:58:43.973Z,4.87
2018-10-02T12:01:13.067Z,5.17
2018-10-02T12:03:42.019Z,5.30
2018-10-02T12:06:11.075Z,5.00
2018-10-02T12:08:40.044Z,6.20
2018-10-02T12:11:09.018Z,5.87
2018-10-02T12:13:38.168Z,6.47
2018-10-02T12:16:07.142Z,5.70
2018-10-02T12:18:36.082Z,5.60
2018-10-02T12:21:05.147Z,5.60
2018-10-02T12:23:34.991Z,5.60
2018-10-02T12:26:04.088Z,5.53
2018-10-02T12:28:33.033Z,5.30
2018-10-02T12:31:02.060Z,5.25
2018-10-02T12:33:30.975Z,4.97
2018-10-02T12:35:59.922Z,4.63
2018-10-02T12:38:28.864Z,5.13
2018-10-02T12:40:57.830Z,5.50
2018-10-02T12:43:26.766Z,5.72
2018-10-02T12:45:55.745Z,5.65
2018-10-02T12:48:24.994Z,5.50
2018-10-02T12:50:53.975Z,5.10
2018-10-02T12:53:23.004Z,5.95
2018-10-02T12:55:51.940Z,6.10
2018-10-02T12:58:20.895Z,5.50
2018-10-02T13:00:49.866Z,5.87
2018-10-02T13:03:18.815Z,5.90
2018-10-02T13:05:47.800Z,5.97
2018-10-02T13:08:16.762Z,5.10
2018-10-02T13:10:45.730Z,5.80
2018-10-02T13:13:14.782Z,6.50
2018-10-02T13:15:43.735Z,5.10
2018-10-02T13:18:12.691Z,5.90
2018-10-02T13:20:41.658Z,5.20
2018-10-02T13:23:10.614Z,6.22
2018-10-02T13:25:39.586Z,6.50
2018-10-02T13:28:08.557Z,7.67
2018-10-02T13:30:37.526Z,7.00
2018-10-02T13:33:06.510Z,7.00
2018-10-02T13:35:35.484Z,7.42
2018-10-02T13:38:04.485Z,8.65
2018-10-02T13:40:33.437Z,8.70
2018-10-02T13:43:02.416Z,8.60
2018-10-02T13:45:31.381Z,9.07
2018-10-02T13:48:00.342Z,8.28
2018-10-02T13:50:29.406Z,8.40
2018-10-02T13:52:58.478Z,7.80
2018-10-02T13:55:27.462Z,7.50
2018-10-02T13:57:56.479Z,8.10
2018-10-02T14:00:25.475Z,8.50
2018-10-02T14:02:54.437Z,9.47
2018-10-02T14:05:23.399Z,9.10
2018-10-02T14:07:52.382Z,9.40
2018-10-02T14:10:21.327Z,9.70
2018-10-02T14:12:50.312Z,9.90
2018-10-02T14:15:19.276Z,8.67
2018-10-02T14:17:48.302Z,9.48
2018-10-02T14:20:17.262Z,8.77
2018-10-02T14:22:46.266Z,9.73
2018-10-02T14:25:15.251Z,8.80
2018-10-02T14:27:44.241Z,8.30
2018-10-02T14:30:13.212Z,8.43
2018-10-02T14:32:42.614Z,8.03
2018-10-02T14:35:11.579Z,9.10
2018-10-02T14:37:40.542Z,7.67
2018-10-02T14:40:09.530Z,8.15
2018-10-02T14:42:38.499Z,8.40
2018-10-02T14:45:07.469Z,8.15
2018-10-02T14:47:36.446Z,9.90
2018-10-02T14:50:05.507Z,9.90
2018-10-02T14:52:34.486Z,11.37
2018-10-02T14:55:03.422Z,10.97
2018-10-02T14:57:32.458Z,12.50
2018-10-02T15:00:01.427Z,12.58
2018-10-02T15:02:30.385Z,13.17
2018-10-02T15:04:59.346Z,13.50
2018-10-02T15:07:28.298Z,14.40
2018-10-02T15:09:57.255Z,14.87
2018-10-02T15:12:26.222Z,16.93
2018-10-02T15:14:55.171Z,16.10
2018-10-02T15:17:24.171Z,16.27
2018-10-02T15:19:53.275Z,17.40
2018-10-02T15:22:22.237Z,18.30
2018-10-02T15:24:51.177Z,19.27
2018-10-02T15:27:20.118Z,19.63
2018-10-02T15:29:49.131Z,19.00
2018-10-02T15:32:18.090Z,19.90
2018-10-02T15:34:47.003Z,19.40
2018-10-02T15:37:15.958Z,19.80
2018-10-02T15:39:44.896Z,19.67
2018-10-02T15:42:13.866Z,19.63
2018-10-02T15:44:42.874Z,18.65
2018-10-02T15:47:11.830Z,19.35
2018-10-02T15:49:40.800Z,19.20
2018-10-02T15:52:09.755Z,19.02
2018-10-02T15:54:38.710Z,20.13
2018-10-02T15:57:07.669Z,18.60
2018-10-02T15:59:36.607Z,18.87
2018-10-02T16:02:05.582Z,18.87
2018-10-02T16:04:34.532Z,18.73
2018-10-02T16:07:03.505Z,18.82
2018-10-02T16:09:32.470Z,19.00
2018-10-02T16:12:01.442Z,20.17
2018-10-02T16:14:30.442Z,18.50
2018-10-02T16:16:59.429Z,17.90
2018-10-02T16:19:28.445Z,16.97
2018-10-02T16:21:57.413Z,16.30
2018-10-02T16:24:26.398Z,15.90
2018-10-02T16:26:55.439Z,15.40
2018-10-02T16:29:24.428Z,14.78
2018-10-02T16:31:53.378Z,15.40
2018-10-02T16:34:22.426Z,14.33
2018-10-02T16:36:51.459Z,14.10
2018-10-02T16:39:20.451Z,15.03
2018-10-02T16:41:49.410Z,15.05
2018-10-02T16:44:18.391Z,15.10
2018-10-02T16:46:47.348Z,14.90
2018-10-02T16:49:16.342Z,14.28
2018-10-02T16:51:45.335Z,15.30
2018-10-02T16:54:14.336Z,14.93
2018-10-02T16:56:43.327Z,17.00
2018-10-02T16:59:12.337Z,16.77
2018-10-02T17:01:41.358Z,14.23
2018-10-02T17:04:10.418Z,13.20
2018-10-02T17:06:39.335Z,12.70
2018-10-02T17:09:08.602Z,14.20
2018-10-02T17:11:37.565Z,14.20
2018-10-02T17:14:06.597Z,13.30
2018-10-02T17:16:35.634Z,12.18
2018-10-02T17:19:04.618Z,10.70
2018-10-02T17:21:33.544Z,9.30
2018-10-02T17:24:02.517Z,9.80
2018-10-02T17:26:31.576Z,8.63
2018-10-02T17:29:00.570Z,9.60
2018-10-02T17:31:29.511Z,9.45
2018-10-02T17:33:58.467Z,9.70
2018-10-02T17:36:27.406Z,8.40
2018-10-02T17:38:56.412Z,9.68
2018-10-02T17:41:25.359Z,9.20
2018-10-02T17:43:54.327Z,8.88
2018-10-02T17:46:23.275Z,8.48
2018-10-02T17:48:52.329Z,8.47
2018-10-02T17:51:21.243Z,7.70
2018-10-02T17:53:50.222Z,7.22
2018-10-02T17:56:19.170Z,6.80
2018-10-02T17:58:48.147Z,6.65
2018-10-02T18:01:17.332Z,6.28
2018-10-02T18:03:46.271Z,5.90
2018-10-02T18:06:15.207Z,5.10
2018-10-02T18:08:44.193Z,5.35
2018-10-02T18:11:13.146Z,4.30
2018-10-02T18:13:42.146Z,4.30
2018-10-02T18:16:11.191Z,4.72
2018-10-02T18:18:40.167Z,4.92
2018-10-02T18:21:09.119Z,4.67
2018-10-02T18:23:38.100Z,3.83
2018-10-02T18:26:07.186Z,5.40
2018-10-02T18:28:36.218Z,4.55
2018-10-02T18:31:05.182Z,5.08
2018-10-02T18:33:34.118Z,5.07
2018-10-02T18:36:03.090Z,4.45
2018-10-02T18:38:32.122Z,3.72
2018-10-02T18:41:01.097Z,4.10
2018-10-02T18:43:30.044Z,4.22
2018-10-02T18:45:59.042Z,3.95
2018-10-02T18:48:28.014Z,4.10
2018-10-02T18:50:57.354Z,3.83
2018-10-02T18:53:26.323Z,4.15
2018-10-02T18:55:55.294Z,4.12
2018-10-02T18:58:24.238Z,4.60
2018-10-02T19:00:53.221Z,4.20
2018-10-02T19:03:22.159Z,4.70
2018-10-02T19:05:51.136Z,4.58
2018-10-02T19:08:24.246Z,3.98
2018-10-02T19:10:53.212Z,4.00
2018-10-02T19:13:22.138Z,4.45
2018-10-02T19:15:56.457Z,3.50
2018-10-02T19:18:25.394Z,4.42
2018-10-02T19:20:54.342Z,4.20
2018-10-02T19:23:23.275Z,3.30
2018-10-02T19:26:03.339Z,3.90
2018-10-02T19:28:32.488Z,4.87
2018-10-02T19:31:06.895Z,4.10
2018-10-02T19:33:35.864Z,3.17
2018-10-02T19:36:04.813Z,3.70
2018-10-02T19:38:39.146Z,3.80
2018-10-02T19:41:08.168Z,4.20
2018-10-02T19:43:37.121Z,4.58
2018-10-02T19:46:11.462Z,3.62
2018-10-02T19:48:40.372Z,4.12
2018-10-02T19:51:14.919Z,4.42
2018-10-02T19:53:43.858Z,3.70
2018-10-02T19:56:12.786Z,4.40
2018-10-02T19:58:41.791Z,2.98
2018-10-02T20:01:10.698Z,5.47
2018-10-02T20:03:39.645Z,4.30
2018-10-02T20:06:08.590Z,4.35
2018-10-02T20:08:37.518Z,5.00
2018-10-02T20:11:06.594Z,4.60
2018-10-02T20:13:35.643Z,3.80
2018-10-02T20:16:04.562Z,4.30
2018-10-02T20:18:33.482Z,4.60
2018-10-02T20:21:02.436Z,3.75
2018-10-02T20:23:31.358Z,4.65
2018-10-02T20:26:00.722Z,4.70
2018-10-02T20:28:29.634Z,3.70
2018-10-02T20:30:58.591Z,4.30
2018-10-02T20:33:27.570Z,4.80
2018-10-02T20:35:56.514Z,4.62
2018-10-02T20:38:25.431Z,4.80
2018-10-02T20:40:54.362Z,4.08
2018-10-02T20:43:23.315Z,4.40
2018-10-02T20:45:52.467Z,4.90
2018-10-02T20:48:21.384Z,5.10
2018-10-02T20:50:50.427Z,4.80
2018-10-02T20:53:19.388Z,4.30
2018-10-02T20:55:48.339Z,5.00
2018-10-02T20:58:17.349Z,4.50
2018-10-02T21:00:46.279Z,4.40
2018-10-02T21:03:15.287Z,5.60
2018-10-02T21:05:44.257Z,4.30
2018-10-02T21:08:13.286Z,4.50
2018-10-02T21:10:42.291Z,4.45
2018-10-02T21:13:11.255Z,4.70
2018-10-02T21:15:40.298Z,4.28
2018-10-02T21:18:09.151Z,5.50
2018-10-02T21:20:38.071Z,4.90
2018-10-02T21:23:07.050Z,4.37
2018-10-02T21:25:35.985Z,4.78
2018-10-02T21:28:04.935Z,5.30
2018-10-02T21:30:33.856Z,4.87
2018-10-02T21:33:02.798Z,4.80
2018-10-02T21:35:31.795Z,6.00
2018-10-02T21:38:00.757Z,5.03
2018-10-02T21:40:29.725Z,4.85
2018-10-02T21:42:58.654Z,5.78
2018-10-02T21:45:27.614Z,5.00
2018-10-02T21:47:56.542Z,5.77
2018-10-02T21:50:25.451Z,5.53
2018-10-02T21:52:54.414Z,5.47
2018-10-02T21:55:23.335Z,4.90
2018-10-02T21:57:52.327Z,5.70
2018-10-02T22:00:21.311Z,5.03
2018-10-02T22:02:50.286Z,6.28
2018-10-02T22:05:19.263Z,5.83
2018-10-02T22:07:48.245Z,6.03
2018-10-02T22:10:17.207Z,5.47
2018-10-02T22:12:46.115Z,6.20
2018-10-02T22:15:15.184Z,6.62
2018-10-02T22:17:44.095Z,6.30
2018-10-02T22:20:13.070Z,6.65
2018-10-02T22:22:42.018Z,5.92
2018-10-02T22:25:10.978Z,5.97
2018-10-02T22:27:39.952Z,5.83
2018-10-02T22:30:10.610Z,5.87
2018-10-02T22:32:39.546Z,5.00
2018-10-02T22:35:08.591Z,4.75
2018-10-02T22:37:37.555Z,6.50
2018-10-02T22:40:06.515Z,5.93
2018-10-02T22:42:35.846Z,6.10
2018-10-02T22:45:04.802Z,6.62
2018-10-02T22:47:33.797Z,6.20
2018-10-02T22:50:03.430Z,5.60
2018-10-02T22:52:32.362Z,6.50
2018-10-02T22:55:01.347Z,6.65
2018-10-02T22:57:30.279Z,6.20
2018-10-02T22:59:59.301Z,6.30
2018-10-02T23:02:28.263Z,5.90
2018-10-02T23:04:57.203Z,6.50
2018-10-02T23:07:26.223Z,6.47
2018-10-02T23:09:55.188Z,6.15
2018-10-02T23:12:24.202Z,6.50
2018-10-02T23:14:53.203Z,5.85
2018-10-02T23:17:22.127Z,6.20
2018-10-02T23:19:51.235Z,5.53
2018-10-02T23:22:20.150Z,7.17
2018-10-02T23:24:49.122Z,6.80
2018-10-02T23:27:18.133Z,7.05
2018-10-02T23:29:47.050Z,7.20
2018-10-02T23:32:16.047Z,5.97
2018-10-02T23:34:44.958Z,6.22
2018-10-02T23:37:13.945Z,6.37
2018-10-02T23:39:42.875Z,6.20
2018-10-02T23:42:11.819Z,6.65
2018-10-02T23:44:40.843Z,5.80
2018-10-02T23:47:09.795Z,6.40
2018-10-02T23:49:38.795Z,6.05
2018-10-02T23:52:07.747Z,6.65
2018-10-02T23:54:36.680Z,6.50
2018-10-02T23:57:05.662Z,6.00
2018-10-02T23:59:34.615Z,6.60
